Terminal Aerodrome Forecast
Issued by NWS St Louis, MO

Home | Current Version | Previous Version | Graphics & Text | Print | Product List | Glossary On
Versions: 1 2 3 4 5 6 7 8 9 10 11 12 13 14 15 16 17 18 19 20 21 22 23 24 25 26 27 28
000
FTUS43 KLSX 012100 AAA
TAFSTL
TAF AMD
KSTL 012101Z 0121/0224 31006KT P6SM OVC015
     FM020000 32006KT P6SM OVC015
     FM020900 36005KT P6SM SCT015 BKN120
     FM021700 09005KT P6SM SCT015=

USA.gov is the U.S. government's official web portal to all federal, state and local government web resources and services.